sensor_id;sensor_type;location;lat;lon;timestamp;P1;durP1;ratioP1;P2;durP2;ratioP2
21202;SDS011;10759;51.982;9.232;2022-07-19T00:01:52;2.95;;;2.30;;
21202;SDS011;10759;51.982;9.232;2022-07-19T00:04:22;6.50;;;2.55;;
21202;SDS011;10759;51.982;9.232;2022-07-19T00:06:50;3.53;;;2.45;;
21202;SDS011;10759;51.982;9.232;2022-07-19T00:09:18;2.33;;;2.00;;
21202;SDS011;10759;51.982;9.232;2022-07-19T00:11:46;3.67;;;2.47;;
21202;SDS011;10759;51.982;9.232;2022-07-19T00:14:14;2.30;;;2.10;;
21202;SDS011;10759;51.982;9.232;2022-07-19T00:16:43;2.53;;;2.10;;
21202;SDS011;10759;51.982;9.232;2022-07-19T00:19:11;3.42;;;2.80;;
21202;SDS011;10759;51.982;9.232;2022-07-19T00:21:41;5.72;;;2.55;;
21202;SDS011;10759;51.982;9.232;2022-07-19T00:24:10;4.75;;;2.47;;
21202;SDS011;10759;51.982;9.232;2022-07-19T00:26:38;3.15;;;2.25;;
21202;SDS011;10759;51.982;9.232;2022-07-19T00:29:06;4.13;;;2.40;;
21202;SDS011;10759;51.982;9.232;2022-07-19T00:31:34;5.10;;;3.05;;
21202;SDS011;10759;51.982;9.232;2022-07-19T00:34:03;2.25;;;2.05;;
21202;SDS011;10759;51.982;9.232;2022-07-19T00:36:32;2.75;;;2.50;;
21202;SDS011;10759;51.982;9.232;2022-07-19T00:39:01;3.13;;;2.42;;
21202;SDS011;10759;51.982;9.232;2022-07-19T00:41:30;2.85;;;2.42;;
21202;SDS011;10759;51.982;9.232;2022-07-19T00:43:58;2.53;;;1.92;;
21202;SDS011;10759;51.982;9.232;2022-07-19T00:46:26;2.88;;;2.22;;
21202;SDS011;10759;51.982;9.232;2022-07-19T00:48:54;3.22;;;2.20;;
21202;SDS011;10759;51.982;9.232;2022-07-19T00:51:23;4.00;;;2.15;;
21202;SDS011;10759;51.982;9.232;2022-07-19T00:53:51;3.38;;;2.40;;
21202;SDS011;10759;51.982;9.232;2022-07-19T00:56:23;3.65;;;2.60;;
21202;SDS011;10759;51.982;9.232;2022-07-19T00:58:54;3.13;;;2.35;;
21202;SDS011;10759;51.982;9.232;2022-07-19T01:01:23;2.75;;;2.42;;
21202;SDS011;10759;51.982;9.232;2022-07-19T01:03:51;3.38;;;2.30;;
21202;SDS011;10759;51.982;9.232;2022-07-19T01:06:20;2.70;;;2.50;;
21202;SDS011;10759;51.982;9.232;2022-07-19T01:08:49;2.55;;;2.35;;
21202;SDS011;10759;51.982;9.232;2022-07-19T01:11:17;4.38;;;2.45;;
21202;SDS011;10759;51.982;9.232;2022-07-19T01:13:47;5.13;;;2.72;;
21202;SDS011;10759;51.982;9.232;2022-07-19T01:16:16;4.07;;;2.35;;
21202;SDS011;10759;51.982;9.232;2022-07-19T01:18:44;2.97;;;2.35;;
21202;SDS011;10759;51.982;9.232;2022-07-19T01:21:17;4.40;;;2.58;;
21202;SDS011;10759;51.982;9.232;2022-07-19T01:23:46;2.55;;;2.20;;
21202;SDS011;10759;51.982;9.232;2022-07-19T01:26:15;3.10;;;2.80;;
21202;SDS011;10759;51.982;9.232;2022-07-19T01:28:44;2.95;;;2.72;;
21202;SDS011;10759;51.982;9.232;2022-07-19T01:31:13;2.90;;;2.53;;
21202;SDS011;10759;51.982;9.232;2022-07-19T01:33:41;6.32;;;2.50;;
21202;SDS011;10759;51.982;9.232;2022-07-19T01:36:10;3.23;;;2.30;;
21202;SDS011;10759;51.982;9.232;2022-07-19T01:38:40;2.67;;;2.33;;
21202;SDS011;10759;51.982;9.232;2022-07-19T01:41:09;4.47;;;2.73;;
21202;SDS011;10759;51.982;9.232;2022-07-19T01:43:37;4.00;;;2.63;;
21202;SDS011;10759;51.982;9.232;2022-07-19T01:46:05;4.13;;;2.67;;
21202;SDS011;10759;51.982;9.232;2022-07-19T01:48:34;3.92;;;2.40;;
21202;SDS011;10759;51.982;9.232;2022-07-19T01:51:03;3.13;;;2.28;;
21202;SDS011;10759;51.982;9.232;2022-07-19T01:53:31;3.13;;;2.88;;
21202;SDS011;10759;51.982;9.232;2022-07-19T01:56:01;2.38;;;2.17;;
21202;SDS011;10759;51.982;9.232;2022-07-19T01:58:31;3.67;;;2.58;;
21202;SDS011;10759;51.982;9.232;2022-07-19T02:01:00;2.58;;;2.38;;
21202;SDS011;10759;51.982;9.232;2022-07-19T02:03:29;4.10;;;2.42;;
21202;SDS011;10759;51.982;9.232;2022-07-19T02:05:57;3.05;;;1.98;;
21202;SDS011;10759;51.982;9.232;2022-07-19T02:08:25;3.78;;;2.65;;
21202;SDS011;10759;51.982;9.232;2022-07-19T02:10:54;4.50;;;2.63;;
21202;SDS011;10759;51.982;9.232;2022-07-19T02:13:23;3.05;;;2.30;;
21202;SDS011;10759;51.982;9.232;2022-07-19T02:15:52;4.32;;;2.95;;
21202;SDS011;10759;51.982;9.232;2022-07-19T02:18:20;2.58;;;2.30;;
21202;SDS011;10759;51.982;9.232;2022-07-19T02:20:48;2.45;;;2.25;;
21202;SDS011;10759;51.982;9.232;2022-07-19T02:23:16;4.63;;;2.35;;
21202;SDS011;10759;51.982;9.232;2022-07-19T02:25:44;2.92;;;2.53;;
21202;SDS011;10759;51.982;9.232;2022-07-19T02:28:12;3.05;;;2.58;;
21202;SDS011;10759;51.982;9.232;2022-07-19T02:30:41;4.07;;;2.75;;
21202;SDS011;10759;51.982;9.232;2022-07-19T02:33:09;3.47;;;2.87;;
21202;SDS011;10759;51.982;9.232;2022-07-19T02:35:38;3.42;;;2.70;;
21202;SDS011;10759;51.982;9.232;2022-07-19T02:38:05;2.95;;;2.47;;
21202;SDS011;10759;51.982;9.232;2022-07-19T02:40:34;6.15;;;3.00;;
21202;SDS011;10759;51.982;9.232;2022-07-19T02:43:02;2.58;;;2.15;;
21202;SDS011;10759;51.982;9.232;2022-07-19T02:45:30;2.92;;;2.70;;
21202;SDS011;10759;51.982;9.232;2022-07-19T02:47:59;3.10;;;2.60;;
21202;SDS011;10759;51.982;9.232;2022-07-19T02:50:30;3.47;;;2.60;;
21202;SDS011;10759;51.982;9.232;2022-07-19T02:52:58;3.25;;;2.95;;
21202;SDS011;10759;51.982;9.232;2022-07-19T02:55:27;3.13;;;2.65;;
21202;SDS011;10759;51.982;9.232;2022-07-19T02:57:55;5.18;;;2.38;;
21202;SDS011;10759;51.982;9.232;2022-07-19T03:00:23;3.53;;;2.85;;
21202;SDS011;10759;51.982;9.232;2022-07-19T03:02:51;2.97;;;2.78;;
21202;SDS011;10759;51.982;9.232;2022-07-19T03:05:21;2.67;;;2.45;;
21202;SDS011;10759;51.982;9.232;2022-07-19T03:07:49;3.28;;;2.42;;
21202;SDS011;10759;51.982;9.232;2022-07-19T03:10:17;2.67;;;2.47;;
21202;SDS011;10759;51.982;9.232;2022-07-19T03:12:45;3.03;;;2.50;;
21202;SDS011;10759;51.982;9.232;2022-07-19T03:15:13;2.85;;;2.42;;
21202;SDS011;10759;51.982;9.232;2022-07-19T03:17:41;4.65;;;2.83;;
21202;SDS011;10759;51.982;9.232;2022-07-19T03:20:09;3.35;;;3.05;;
21202;SDS011;10759;51.982;9.232;2022-07-19T03:22:40;3.05;;;2.78;;
21202;SDS011;10759;51.982;9.232;2022-07-19T03:25:08;4.03;;;3.33;;
21202;SDS011;10759;51.982;9.232;2022-07-19T03:27:36;4.35;;;2.97;;
21202;SDS011;10759;51.982;9.232;2022-07-19T03:30:04;4.65;;;2.80;;
21202;SDS011;10759;51.982;9.232;2022-07-19T03:32:33;3.60;;;2.88;;
21202;SDS011;10759;51.982;9.232;2022-07-19T03:35:01;3.33;;;2.55;;
21202;SDS011;10759;51.982;9.232;2022-07-19T03:37:30;3.95;;;2.85;;
21202;SDS011;10759;51.982;9.232;2022-07-19T03:39:59;4.88;;;3.33;;
21202;SDS011;10759;51.982;9.232;2022-07-19T03:42:27;4.30;;;2.63;;
21202;SDS011;10759;51.982;9.232;2022-07-19T03:44:55;3.58;;;2.90;;
21202;SDS011;10759;51.982;9.232;2022-07-19T03:47:23;3.47;;;3.17;;
21202;SDS011;10759;51.982;9.232;2022-07-19T03:49:51;5.13;;;3.03;;
21202;SDS011;10759;51.982;9.232;2022-07-19T03:52:19;3.95;;;3.08;;
21202;SDS011;10759;51.982;9.232;2022-07-19T03:54:47;3.67;;;2.92;;
21202;SDS011;10759;51.982;9.232;2022-07-19T03:57:17;3.10;;;2.90;;
21202;SDS011;10759;51.982;9.232;2022-07-19T03:59:45;4.32;;;2.70;;
21202;SDS011;10759;51.982;9.232;2022-07-19T04:02:13;2.60;;;2.40;;
21202;SDS011;10759;51.982;9.232;2022-07-19T04:04:42;3.22;;;3.03;;
21202;SDS011;10759;51.982;9.232;2022-07-19T04:07:10;4.07;;;2.67;;
21202;SDS011;10759;51.982;9.232;2022-07-19T04:09:38;5.25;;;3.30;;
21202;SDS011;10759;51.982;9.232;2022-07-19T04:12:06;6.95;;;3.22;;
21202;SDS011;10759;51.982;9.232;2022-07-19T04:14:36;3.20;;;2.90;;
21202;SDS011;10759;51.982;9.232;2022-07-19T04:17:04;2.97;;;2.77;;
21202;SDS011;10759;51.982;9.232;2022-07-19T04:19:32;4.35;;;2.95;;
21202;SDS011;10759;51.982;9.232;2022-07-19T04:22:01;3.10;;;2.77;;
21202;SDS011;10759;51.982;9.232;2022-07-19T04:24:30;4.00;;;3.42;;
21202;SDS011;10759;51.982;9.232;2022-07-19T04:26:58;4.22;;;3.00;;
21202;SDS011;10759;51.982;9.232;2022-07-19T04:29:26;5.38;;;2.78;;
21202;SDS011;10759;51.982;9.232;2022-07-19T04:31:55;4.95;;;3.63;;
21202;SDS011;10759;51.982;9.232;2022-07-19T04:34:23;3.63;;;2.78;;
21202;SDS011;10759;51.982;9.232;2022-07-19T04:36:51;4.13;;;3.00;;
21202;SDS011;10759;51.982;9.232;2022-07-19T04:39:20;3.75;;;3.35;;
21202;SDS011;10759;51.982;9.232;2022-07-19T04:41:48;3.55;;;3.03;;
21202;SDS011;10759;51.982;9.232;2022-07-19T04:44:16;3.97;;;2.90;;
21202;SDS011;10759;51.982;9.232;2022-07-19T04:46:44;3.90;;;3.60;;
21202;SDS011;10759;51.982;9.232;2022-07-19T04:49:14;3.22;;;2.67;;
21202;SDS011;10759;51.982;9.232;2022-07-19T04:51:42;4.30;;;2.97;;
21202;SDS011;10759;51.982;9.232;2022-07-19T04:54:10;5.88;;;4.15;;
21202;SDS011;10759;51.982;9.232;2022-07-19T04:56:39;3.20;;;2.92;;
21202;SDS011;10759;51.982;9.232;2022-07-19T04:59:07;3.22;;;2.90;;
21202;SDS011;10759;51.982;9.232;2022-07-19T05:01:34;3.35;;;3.05;;
21202;SDS011;10759;51.982;9.232;2022-07-19T05:04:03;5.18;;;4.05;;
21202;SDS011;10759;51.982;9.232;2022-07-19T05:06:33;6.53;;;3.80;;
21202;SDS011;10759;51.982;9.232;2022-07-19T05:09:01;4.13;;;3.20;;
21202;SDS011;10759;51.982;9.232;2022-07-19T05:11:30;6.13;;;3.80;;
21202;SDS011;10759;51.982;9.232;2022-07-19T05:13:58;4.63;;;4.05;;
21202;SDS011;10759;51.982;9.232;2022-07-19T05:16:27;3.75;;;3.45;;
21202;SDS011;10759;51.982;9.232;2022-07-19T05:18:55;7.75;;;4.00;;
21202;SDS011;10759;51.982;9.232;2022-07-19T05:21:23;5.25;;;3.95;;
21202;SDS011;10759;51.982;9.232;2022-07-19T05:23:53;3.78;;;3.47;;
21202;SDS011;10759;51.982;9.232;2022-07-19T05:26:21;4.13;;;3.27;;
21202;SDS011;10759;51.982;9.232;2022-07-19T05:28:49;4.45;;;3.55;;
21202;SDS011;10759;51.982;9.232;2022-07-19T05:31:17;3.70;;;3.40;;
21202;SDS011;10759;51.982;9.232;2022-07-19T05:33:45;5.63;;;4.30;;
21202;SDS011;10759;51.982;9.232;2022-07-19T05:36:13;6.20;;;3.45;;
21202;SDS011;10759;51.982;9.232;2022-07-19T05:38:42;5.35;;;3.92;;
21202;SDS011;10759;51.982;9.232;2022-07-19T05:41:11;5.20;;;3.83;;
21202;SDS011;10759;51.982;9.232;2022-07-19T05:43:39;4.93;;;4.33;;
21202;SDS011;10759;51.982;9.232;2022-07-19T05:46:07;6.00;;;4.10;;
21202;SDS011;10759;51.982;9.232;2022-07-19T05:48:35;4.97;;;4.18;;
21202;SDS011;10759;51.982;9.232;2022-07-19T05:51:03;4.63;;;4.15;;
21202;SDS011;10759;51.982;9.232;2022-07-19T05:53:32;5.38;;;4.38;;
21202;SDS011;10759;51.982;9.232;2022-07-19T05:56:00;5.82;;;4.28;;
21202;SDS011;10759;51.982;9.232;2022-07-19T05:58:29;6.70;;;4.63;;
21202;SDS011;10759;51.982;9.232;2022-07-19T06:01:00;7.28;;;4.35;;
21202;SDS011;10759;51.982;9.232;2022-07-19T06:03:50;5.72;;;3.85;;
21202;SDS011;10759;51.982;9.232;2022-07-19T06:06:24;6.07;;;4.60;;
21202;SDS011;10759;51.982;9.232;2022-07-19T06:08:54;6.38;;;4.10;;
21202;SDS011;10759;51.982;9.232;2022-07-19T06:11:22;4.90;;;3.35;;
21202;SDS011;10759;51.982;9.232;2022-07-19T06:13:53;8.25;;;4.00;;
21202;SDS011;10759;51.982;9.232;2022-07-19T06:16:21;7.25;;;4.15;;
21202;SDS011;10759;51.982;9.232;2022-07-19T06:18:49;5.75;;;3.58;;
21202;SDS011;10759;51.982;9.232;2022-07-19T06:21:18;8.23;;;4.32;;
21202;SDS011;10759;51.982;9.232;2022-07-19T06:23:48;4.80;;;4.30;;
21202;SDS011;10759;51.982;9.232;2022-07-19T06:26:16;6.43;;;4.15;;
21202;SDS011;10759;51.982;9.232;2022-07-19T06:28:45;5.35;;;4.05;;
21202;SDS011;10759;51.982;9.232;2022-07-19T06:31:14;5.63;;;4.53;;
21202;SDS011;10759;51.982;9.232;2022-07-19T06:33:45;6.35;;;4.18;;
21202;SDS011;10759;51.982;9.232;2022-07-19T06:36:13;4.53;;;4.00;;
21202;SDS011;10759;51.982;9.232;2022-07-19T06:38:42;5.28;;;3.97;;
21202;SDS011;10759;51.982;9.232;2022-07-19T06:41:10;4.35;;;3.85;;
21202;SDS011;10759;51.982;9.232;2022-07-19T06:43:39;6.13;;;4.50;;
21202;SDS011;10759;51.982;9.232;2022-07-19T06:46:08;5.25;;;3.50;;
21202;SDS011;10759;51.982;9.232;2022-07-19T06:48:38;4.70;;;3.83;;
21202;SDS011;10759;51.982;9.232;2022-07-19T06:51:06;6.57;;;4.43;;
21202;SDS011;10759;51.982;9.232;2022-07-19T06:53:35;4.60;;;3.78;;
21202;SDS011;10759;51.982;9.232;2022-07-19T06:56:04;4.18;;;3.60;;
21202;SDS011;10759;51.982;9.232;2022-07-19T06:58:32;4.25;;;3.30;;
21202;SDS011;10759;51.982;9.232;2022-07-19T07:01:07;3.78;;;3.30;;
21202;SDS011;10759;51.982;9.232;2022-07-19T07:03:35;3.83;;;3.10;;
21202;SDS011;10759;51.982;9.232;2022-07-19T07:06:05;4.28;;;3.70;;
21202;SDS011;10759;51.982;9.232;2022-07-19T07:08:34;6.15;;;3.58;;
21202;SDS011;10759;51.982;9.232;2022-07-19T07:11:02;5.90;;;3.83;;
21202;SDS011;10759;51.982;9.232;2022-07-19T07:13:30;3.72;;;3.42;;
21202;SDS011;10759;51.982;9.232;2022-07-19T07:15:58;5.28;;;3.20;;
21202;SDS011;10759;51.982;9.232;2022-07-19T07:18:26;6.38;;;4.35;;
21202;SDS011;10759;51.982;9.232;2022-07-19T07:20:54;7.40;;;3.83;;
21202;SDS011;10759;51.982;9.232;2022-07-19T07:23:23;6.82;;;3.53;;
21202;SDS011;10759;51.982;9.232;2022-07-19T07:25:51;4.95;;;3.95;;
21202;SDS011;10759;51.982;9.232;2022-07-19T07:28:20;3.57;;;3.27;;
21202;SDS011;10759;51.982;9.232;2022-07-19T07:30:51;7.30;;;3.50;;
21202;SDS011;10759;51.982;9.232;2022-07-19T07:33:20;6.85;;;3.70;;
21202;SDS011;10759;51.982;9.232;2022-07-19T07:35:48;4.80;;;3.80;;
21202;SDS011;10759;51.982;9.232;2022-07-19T07:38:16;5.70;;;2.85;;
21202;SDS011;10759;51.982;9.232;2022-07-19T07:40:45;5.00;;;3.40;;
21202;SDS011;10759;51.982;9.232;2022-07-19T07:43:14;6.63;;;3.60;;
21202;SDS011;10759;51.982;9.232;2022-07-19T07:45:42;4.53;;;3.25;;
21202;SDS011;10759;51.982;9.232;2022-07-19T07:48:10;3.80;;;3.17;;
21202;SDS011;10759;51.982;9.232;2022-07-19T07:50:38;6.43;;;3.70;;
21202;SDS011;10759;51.982;9.232;2022-07-19T07:53:06;4.22;;;3.40;;
21202;SDS011;10759;51.982;9.232;2022-07-19T07:55:34;3.97;;;3.42;;
21202;SDS011;10759;51.982;9.232;2022-07-19T07:58:08;5.53;;;3.13;;
21202;SDS011;10759;51.982;9.232;2022-07-19T08:00:37;6.97;;;3.45;;
21202;SDS011;10759;51.982;9.232;2022-07-19T08:05:34;3.85;;;3.55;;
21202;SDS011;10759;51.982;9.232;2022-07-19T08:08:02;3.40;;;3.10;;
21202;SDS011;10759;51.982;9.232;2022-07-19T08:10:31;10.55;;;3.40;;
21202;SDS011;10759;51.982;9.232;2022-07-19T08:13:01;3.80;;;3.22;;
21202;SDS011;10759;51.982;9.232;2022-07-19T08:15:35;4.95;;;3.40;;
21202;SDS011;10759;51.982;9.232;2022-07-19T08:18:04;4.95;;;3.70;;
21202;SDS011;10759;51.982;9.232;2022-07-19T08:20:32;4.20;;;3.20;;
21202;SDS011;10759;51.982;9.232;2022-07-19T08:23:00;7.57;;;3.33;;
21202;SDS011;10759;51.982;9.232;2022-07-19T08:25:28;6.22;;;3.65;;
21202;SDS011;10759;51.982;9.232;2022-07-19T08:27:56;5.35;;;3.60;;
21202;SDS011;10759;51.982;9.232;2022-07-19T08:30:24;8.05;;;3.83;;
21202;SDS011;10759;51.982;9.232;2022-07-19T08:33:13;6.10;;;2.92;;
21202;SDS011;10759;51.982;9.232;2022-07-19T08:35:42;6.63;;;3.70;;
21202;SDS011;10759;51.982;9.232;2022-07-19T08:38:10;7.45;;;3.58;;
21202;SDS011;10759;51.982;9.232;2022-07-19T08:40:38;10.18;;;4.10;;
21202;SDS011;10759;51.982;9.232;2022-07-19T08:43:09;6.70;;;3.13;;
21202;SDS011;10759;51.982;9.232;2022-07-19T08:45:38;6.40;;;3.78;;
21202;SDS011;10759;51.982;9.232;2022-07-19T08:50:38;3.88;;;3.17;;
21202;SDS011;10759;51.982;9.232;2022-07-19T08:53:07;5.35;;;3.30;;
21202;SDS011;10759;51.982;9.232;2022-07-19T08:55:36;6.68;;;3.45;;
21202;SDS011;10759;51.982;9.232;2022-07-19T08:58:04;4.57;;;3.53;;
21202;SDS011;10759;51.982;9.232;2022-07-19T09:00:33;10.93;;;4.28;;
21202;SDS011;10759;51.982;9.232;2022-07-19T09:03:03;4.78;;;3.60;;
21202;SDS011;10759;51.982;9.232;2022-07-19T09:10:33;6.35;;;3.85;;
21202;SDS011;10759;51.982;9.232;2022-07-19T09:13:03;3.97;;;3.25;;
21202;SDS011;10759;51.982;9.232;2022-07-19T09:15:37;7.40;;;3.55;;
21202;SDS011;10759;51.982;9.232;2022-07-19T09:18:07;7.88;;;3.25;;
21202;SDS011;10759;51.982;9.232;2022-07-19T09:23:05;7.22;;;3.60;;
21202;SDS011;10759;51.982;9.232;2022-07-19T09:25:35;5.80;;;2.90;;
21202;SDS011;10759;51.982;9.232;2022-07-19T09:28:04;3.28;;;2.95;;
21202;SDS011;10759;51.982;9.232;2022-07-19T09:30:34;3.75;;;3.45;;
21202;SDS011;10759;51.982;9.232;2022-07-19T09:33:13;4.63;;;4.32;;
21202;SDS011;10759;51.982;9.232;2022-07-19T09:35:43;2.70;;;2.50;;
21202;SDS011;10759;51.982;9.232;2022-07-19T09:41:10;2.45;;;2.20;;
21202;SDS011;10759;51.982;9.232;2022-07-19T09:43:49;4.07;;;2.30;;
21202;SDS011;10759;51.982;9.232;2022-07-19T09:46:29;5.20;;;2.70;;
21202;SDS011;10759;51.982;9.232;2022-07-19T09:49:01;3.40;;;2.40;;
21202;SDS011;10759;51.982;9.232;2022-07-19T09:51:31;3.13;;;2.63;;
21202;SDS011;10759;51.982;9.232;2022-07-19T09:54:03;4.32;;;2.67;;
21202;SDS011;10759;51.982;9.232;2022-07-19T09:56:32;4.82;;;2.63;;
21202;SDS011;10759;51.982;9.232;2022-07-19T09:59:00;3.20;;;2.55;;
21202;SDS011;10759;51.982;9.232;2022-07-19T10:01:29;4.47;;;2.60;;
21202;SDS011;10759;51.982;9.232;2022-07-19T10:04:01;6.55;;;2.47;;
21202;SDS011;10759;51.982;9.232;2022-07-19T10:06:30;3.50;;;2.83;;
21202;SDS011;10759;51.982;9.232;2022-07-19T10:08:59;6.05;;;2.72;;
21202;SDS011;10759;51.982;9.232;2022-07-19T10:11:30;3.37;;;2.90;;
21202;SDS011;10759;51.982;9.232;2022-07-19T10:13:59;3.78;;;2.22;;
21202;SDS011;10759;51.982;9.232;2022-07-19T10:16:31;4.75;;;2.83;;
21202;SDS011;10759;51.982;9.232;2022-07-19T10:19:10;3.67;;;2.40;;
21202;SDS011;10759;51.982;9.232;2022-07-19T10:21:44;3.60;;;2.20;;
21202;SDS011;10759;51.982;9.232;2022-07-19T10:24:13;4.88;;;2.03;;
21202;SDS011;10759;51.982;9.232;2022-07-19T10:26:42;2.45;;;2.25;;
21202;SDS011;10759;51.982;9.232;2022-07-19T10:29:11;3.08;;;2.40;;
21202;SDS011;10759;51.982;9.232;2022-07-19T10:31:43;2.58;;;2.15;;
21202;SDS011;10759;51.982;9.232;2022-07-19T10:34:30;2.90;;;2.30;;
21202;SDS011;10759;51.982;9.232;2022-07-19T10:36:58;6.05;;;2.60;;
21202;SDS011;10759;51.982;9.232;2022-07-19T10:39:27;2.53;;;2.10;;
21202;SDS011;10759;51.982;9.232;2022-07-19T10:42:09;2.20;;;2.00;;
21202;SDS011;10759;51.982;9.232;2022-07-19T10:50:51;2.20;;;2.00;;
21202;SDS011;10759;51.982;9.232;2022-07-19T10:56:54;3.05;;;2.55;;
21202;SDS011;10759;51.982;9.232;2022-07-19T10:59:34;2.45;;;2.25;;
21202;SDS011;10759;51.982;9.232;2022-07-19T11:02:21;4.95;;;2.88;;
21202;SDS011;10759;51.982;9.232;2022-07-19T11:05:20;5.13;;;3.20;;
21202;SDS011;10759;51.982;9.232;2022-07-19T11:07:48;3.05;;;2.45;;
21202;SDS011;10759;51.982;9.232;2022-07-19T11:10:21;2.85;;;2.63;;
21202;SDS011;10759;51.982;9.232;2022-07-19T11:12:49;4.75;;;2.85;;
21202;SDS011;10759;51.982;9.232;2022-07-19T11:15:19;4.40;;;2.50;;
21202;SDS011;10759;51.982;9.232;2022-07-19T11:17:53;4.82;;;2.42;;
21202;SDS011;10759;51.982;9.232;2022-07-19T11:20:22;2.70;;;2.50;;
21202;SDS011;10759;51.982;9.232;2022-07-19T11:22:51;3.03;;;2.20;;
21202;SDS011;10759;51.982;9.232;2022-07-19T11:25:25;3.03;;;2.60;;
21202;SDS011;10759;51.982;9.232;2022-07-19T11:27:56;7.32;;;2.53;;
21202;SDS011;10759;51.982;9.232;2022-07-19T11:30:27;2.28;;;2.00;;
21202;SDS011;10759;51.982;9.232;2022-07-19T11:32:57;4.72;;;2.47;;
21202;SDS011;10759;51.982;9.232;2022-07-19T11:35:27;3.35;;;2.60;;
21202;SDS011;10759;51.982;9.232;2022-07-19T11:37:56;2.97;;;2.40;;
21202;SDS011;10759;51.982;9.232;2022-07-19T11:40:32;3.35;;;2.65;;
21202;SDS011;10759;51.982;9.232;2022-07-19T11:43:03;4.38;;;2.70;;
21202;SDS011;10759;51.982;9.232;2022-07-19T11:45:47;3.08;;;2.78;;
21202;SDS011;10759;51.982;9.232;2022-07-19T11:48:24;5.32;;;3.17;;
21202;SDS011;10759;51.982;9.232;2022-07-19T11:51:03;2.40;;;2.30;;
21202;SDS011;10759;51.982;9.232;2022-07-19T11:53:34;3.08;;;2.78;;
21202;SDS011;10759;51.982;9.232;2022-07-19T11:56:04;3.78;;;2.58;;
21202;SDS011;10759;51.982;9.232;2022-07-19T11:58:33;5.90;;;2.67;;
21202;SDS011;10759;51.982;9.232;2022-07-19T12:01:04;5.53;;;3.47;;
21202;SDS011;10759;51.982;9.232;2022-07-19T12:03:33;6.95;;;3.53;;
21202;SDS011;10759;51.982;9.232;2022-07-19T12:06:02;4.18;;;3.03;;
21202;SDS011;10759;51.982;9.232;2022-07-19T12:08:32;5.80;;;3.10;;
21202;SDS011;10759;51.982;9.232;2022-07-19T12:11:20;3.75;;;2.90;;
21202;SDS011;10759;51.982;9.232;2022-07-19T12:13:50;4.47;;;3.03;;
21202;SDS011;10759;51.982;9.232;2022-07-19T12:16:21;3.55;;;3.08;;
21202;SDS011;10759;51.982;9.232;2022-07-19T12:18:51;6.10;;;3.30;;
21202;SDS011;10759;51.982;9.232;2022-07-19T12:21:27;6.90;;;3.67;;
21202;SDS011;10759;51.982;9.232;2022-07-19T12:24:18;5.70;;;3.03;;
21202;SDS011;10759;51.982;9.232;2022-07-19T12:27:01;5.18;;;3.17;;
21202;SDS011;10759;51.982;9.232;2022-07-19T12:29:32;4.10;;;2.70;;
21202;SDS011;10759;51.982;9.232;2022-07-19T12:32:04;3.25;;;2.67;;
21202;SDS011;10759;51.982;9.232;2022-07-19T12:34:44;3.33;;;2.58;;
21202;SDS011;10759;51.982;9.232;2022-07-19T12:37:18;6.50;;;2.60;;
21202;SDS011;10759;51.982;9.232;2022-07-19T12:39:58;3.72;;;2.70;;
21202;SDS011;10759;51.982;9.232;2022-07-19T12:42:34;6.43;;;2.67;;
21202;SDS011;10759;51.982;9.232;2022-07-19T12:45:05;3.47;;;2.40;;
21202;SDS011;10759;51.982;9.232;2022-07-19T12:47:35;4.72;;;2.72;;
21202;SDS011;10759;51.982;9.232;2022-07-19T12:50:04;4.00;;;3.28;;
21202;SDS011;10759;51.982;9.232;2022-07-19T12:52:38;5.88;;;2.65;;
21202;SDS011;10759;51.982;9.232;2022-07-19T12:55:07;2.88;;;2.63;;
21202;SDS011;10759;51.982;9.232;2022-07-19T12:57:44;3.60;;;2.88;;
21202;SDS011;10759;51.982;9.232;2022-07-19T13:00:13;2.78;;;2.40;;
21202;SDS011;10759;51.982;9.232;2022-07-19T13:02:44;3.28;;;2.28;;
21202;SDS011;10759;51.982;9.232;2022-07-19T13:05:13;5.38;;;2.58;;
21202;SDS011;10759;51.982;9.232;2022-07-19T13:07:42;6.88;;;2.50;;
21202;SDS011;10759;51.982;9.232;2022-07-19T13:10:10;6.57;;;2.70;;
21202;SDS011;10759;51.982;9.232;2022-07-19T13:12:39;5.30;;;2.40;;
21202;SDS011;10759;51.982;9.232;2022-07-19T13:15:08;7.47;;;2.90;;
21202;SDS011;10759;51.982;9.232;2022-07-19T13:17:39;5.30;;;2.63;;
21202;SDS011;10759;51.982;9.232;2022-07-19T13:20:10;3.20;;;2.90;;
21202;SDS011;10759;51.982;9.232;2022-07-19T13:22:39;3.25;;;2.53;;
21202;SDS011;10759;51.982;9.232;2022-07-19T13:25:08;4.63;;;3.00;;
21202;SDS011;10759;51.982;9.232;2022-07-19T13:27:57;3.25;;;2.33;;
21202;SDS011;10759;51.982;9.232;2022-07-19T13:30:25;3.28;;;2.40;;
21202;SDS011;10759;51.982;9.232;2022-07-19T13:32:53;3.05;;;2.65;;
21202;SDS011;10759;51.982;9.232;2022-07-19T13:35:24;2.88;;;2.58;;
21202;SDS011;10759;51.982;9.232;2022-07-19T13:37:52;3.88;;;3.00;;
21202;SDS011;10759;51.982;9.232;2022-07-19T13:40:20;4.30;;;2.72;;
21202;SDS011;10759;51.982;9.232;2022-07-19T13:42:48;4.57;;;2.70;;
21202;SDS011;10759;51.982;9.232;2022-07-19T13:45:16;4.70;;;2.47;;
21202;SDS011;10759;51.982;9.232;2022-07-19T13:47:44;9.73;;;2.67;;
21202;SDS011;10759;51.982;9.232;2022-07-19T13:50:12;2.08;;;1.88;;
21202;SDS011;10759;51.982;9.232;2022-07-19T13:52:41;3.55;;;2.08;;
21202;SDS011;10759;51.982;9.232;2022-07-19T13:55:09;2.40;;;2.20;;
21202;SDS011;10759;51.982;9.232;2022-07-19T13:57:38;2.20;;;2.00;;
21202;SDS011;10759;51.982;9.232;2022-07-19T14:00:06;2.95;;;2.65;;
21202;SDS011;10759;51.982;9.232;2022-07-19T14:02:39;3.10;;;2.17;;
21202;SDS011;10759;51.982;9.232;2022-07-19T14:05:08;2.65;;;2.45;;
21202;SDS011;10759;51.982;9.232;2022-07-19T14:07:36;4.53;;;2.42;;
21202;SDS011;10759;51.982;9.232;2022-07-19T14:10:06;4.95;;;2.20;;
21202;SDS011;10759;51.982;9.232;2022-07-19T14:12:34;3.03;;;2.30;;
21202;SDS011;10759;51.982;9.232;2022-07-19T14:15:03;3.03;;;2.42;;
21202;SDS011;10759;51.982;9.232;2022-07-19T14:17:32;3.42;;;2.20;;
21202;SDS011;10759;51.982;9.232;2022-07-19T14:20:00;2.72;;;2.00;;
21202;SDS011;10759;51.982;9.232;2022-07-19T14:22:28;2.22;;;2.03;;
21202;SDS011;10759;51.982;9.232;2022-07-19T14:24:56;1.65;;;1.55;;
21202;SDS011;10759;51.982;9.232;2022-07-19T14:29:55;2.03;;;1.92;;
21202;SDS011;10759;51.982;9.232;2022-07-19T14:32:23;3.22;;;2.65;;
21202;SDS011;10759;51.982;9.232;2022-07-19T14:34:51;2.35;;;2.08;;
21202;SDS011;10759;51.982;9.232;2022-07-19T14:37:19;2.28;;;2.08;;
21202;SDS011;10759;51.982;9.232;2022-07-19T14:39:54;1.92;;;1.80;;
21202;SDS011;10759;51.982;9.232;2022-07-19T14:42:23;2.90;;;1.88;;
21202;SDS011;10759;51.982;9.232;2022-07-19T14:44:52;4.05;;;1.73;;
21202;SDS011;10759;51.982;9.232;2022-07-19T14:47:20;2.97;;;2.20;;
21202;SDS011;10759;51.982;9.232;2022-07-19T14:49:48;4.63;;;2.35;;
21202;SDS011;10759;51.982;9.232;2022-07-19T14:52:16;3.50;;;2.10;;
21202;SDS011;10759;51.982;9.232;2022-07-19T14:54:44;2.33;;;1.77;;
21202;SDS011;10759;51.982;9.232;2022-07-19T14:57:13;3.55;;;2.10;;
21202;SDS011;10759;51.982;9.232;2022-07-19T14:59:41;2.60;;;2.40;;
21202;SDS011;10759;51.982;9.232;2022-07-19T15:02:16;2.65;;;2.40;;
21202;SDS011;10759;51.982;9.232;2022-07-19T15:04:45;3.08;;;2.50;;
21202;SDS011;10759;51.982;9.232;2022-07-19T15:07:13;3.75;;;2.60;;
21202;SDS011;10759;51.982;9.232;2022-07-19T15:09:42;3.95;;;2.40;;
21202;SDS011;10759;51.982;9.232;2022-07-19T15:12:10;5.88;;;2.72;;
21202;SDS011;10759;51.982;9.232;2022-07-19T15:14:42;5.10;;;2.97;;
21202;SDS011;10759;51.982;9.232;2022-07-19T15:17:10;3.53;;;2.58;;
21202;SDS011;10759;51.982;9.232;2022-07-19T15:19:40;3.92;;;2.72;;
21202;SDS011;10759;51.982;9.232;2022-07-19T15:24:36;4.95;;;2.72;;
21202;SDS011;10759;51.982;9.232;2022-07-19T15:27:04;3.17;;;2.85;;
21202;SDS011;10759;51.982;9.232;2022-07-19T15:29:32;3.42;;;2.47;;
21202;SDS011;10759;51.982;9.232;2022-07-19T15:32:00;3.72;;;3.03;;
21202;SDS011;10759;51.982;9.232;2022-07-19T15:34:28;3.30;;;3.00;;